sensor_id;sensor_type;location;lat;lon;timestamp;temperature;humidity
64062;DHT22;50308;47.438;-1.528;2023-04-24T00:01:08;13.00;75.40
64062;DHT22;50308;47.438;-1.528;2023-04-24T00:03:34;13.00;75.30
64062;DHT22;50308;47.438;-1.528;2023-04-24T00:06:00;13.00;75.30
64062;DHT22;50308;47.438;-1.528;2023-04-24T00:08:26;12.90;75.30
64062;DHT22;50308;47.438;-1.528;2023-04-24T00:10:52;12.90;75.20
64062;DHT22;50308;47.438;-1.528;2023-04-24T00:13:18;12.90;74.90
64062;DHT22;50308;47.438;-1.528;2023-04-24T00:15:43;12.90;75.40
64062;DHT22;50308;47.438;-1.528;2023-04-24T00:18:09;12.80;75.40
64062;DHT22;50308;47.438;-1.528;2023-04-24T00:20:35;12.80;75.10
64062;DHT22;50308;47.438;-1.528;2023-04-24T00:23:01;12.80;75.50
64062;DHT22;50308;47.438;-1.528;2023-04-24T00:25:26;12.80;75.50
64062;DHT22;50308;47.438;-1.528;2023-04-24T00:27:52;12.80;75.80
64062;DHT22;50308;47.438;-1.528;2023-04-24T00:30:18;12.80;75.60
64062;DHT22;50308;47.438;-1.528;2023-04-24T00:32:43;12.70;75.50
64062;DHT22;50308;47.438;-1.528;2023-04-24T00:35:09;12.70;75.30
64062;DHT22;50308;47.438;-1.528;2023-04-24T00:37:35;12.60;75.40
64062;DHT22;50308;47.438;-1.528;2023-04-24T00:40:01;12.50;75.70
64062;DHT22;50308;47.438;-1.528;2023-04-24T00:42:28;12.50;75.60
64062;DHT22;50308;47.438;-1.528;2023-04-24T00:44:54;12.50;75.80
64062;DHT22;50308;47.438;-1.528;2023-04-24T00:47:19;12.40;75.80
64062;DHT22;50308;47.438;-1.528;2023-04-24T00:49:47;12.40;75.80
64062;DHT22;50308;47.438;-1.528;2023-04-24T00:52:13;12.40;75.90
64062;DHT22;50308;47.438;-1.528;2023-04-24T00:54:44;12.40;75.90
64062;DHT22;50308;47.438;-1.528;2023-04-24T00:57:10;12.30;75.50
64062;DHT22;50308;47.438;-1.528;2023-04-24T00:59:38;12.30;75.60
64062;DHT22;50308;47.438;-1.528;2023-04-24T01:02:04;12.30;75.70
64062;DHT22;50308;47.438;-1.528;2023-04-24T01:04:31;12.30;75.80
64062;DHT22;50308;47.438;-1.528;2023-04-24T01:06:57;12.30;75.60
64062;DHT22;50308;47.438;-1.528;2023-04-24T01:09:25;12.30;75.60
64062;DHT22;50308;47.438;-1.528;2023-04-24T01:11:52;12.30;75.50
64062;DHT22;50308;47.438;-1.528;2023-04-24T01:14:18;12.20;75.40
64062;DHT22;50308;47.438;-1.528;2023-04-24T01:16:43;12.30;75.30
64062;DHT22;50308;47.438;-1.528;2023-04-24T01:19:10;12.20;75.40
64062;DHT22;50308;47.438;-1.528;2023-04-24T01:21:37;12.20;75.30
64062;DHT22;50308;47.438;-1.528;2023-04-24T01:24:04;12.20;75.50
64062;DHT22;50308;47.438;-1.528;2023-04-24T01:26:30;12.20;75.60
64062;DHT22;50308;47.438;-1.528;2023-04-24T01:28:56;12.20;75.40
64062;DHT22;50308;47.438;-1.528;2023-04-24T01:31:23;12.20;75.60
64062;DHT22;50308;47.438;-1.528;2023-04-24T01:33:50;12.20;75.40
64062;DHT22;50308;47.438;-1.528;2023-04-24T01:36:16;12.20;75.40
64062;DHT22;50308;47.438;-1.528;2023-04-24T01:38:42;12.10;75.50
64062;DHT22;50308;47.438;-1.528;2023-04-24T01:41:09;12.20;75.70
64062;DHT22;50308;47.438;-1.528;2023-04-24T01:43:35;12.10;75.60
64062;DHT22;50308;47.438;-1.528;2023-04-24T01:46:00;12.10;75.80
64062;DHT22;50308;47.438;-1.528;2023-04-24T01:48:26;12.10;75.80
64062;DHT22;50308;47.438;-1.528;2023-04-24T01:50:52;12.20;75.80
64062;DHT22;50308;47.438;-1.528;2023-04-24T01:53:18;12.20;75.80
64062;DHT22;50308;47.438;-1.528;2023-04-24T01:55:43;12.20;75.80
64062;DHT22;50308;47.438;-1.528;2023-04-24T01:58:09;12.20;75.80
64062;DHT22;50308;47.438;-1.528;2023-04-24T02:00:35;12.20;75.50
64062;DHT22;50308;47.438;-1.528;2023-04-24T02:03:01;12.20;75.90
64062;DHT22;50308;47.438;-1.528;2023-04-24T02:05:27;12.20;76.10
64062;DHT22;50308;47.438;-1.528;2023-04-24T02:07:53;12.20;76.20
64062;DHT22;50308;47.438;-1.528;2023-04-24T02:10:19;12.30;76.50
64062;DHT22;50308;47.438;-1.528;2023-04-24T02:12:44;12.30;76.60
64062;DHT22;50308;47.438;-1.528;2023-04-24T02:15:10;12.40;76.40
64062;DHT22;50308;47.438;-1.528;2023-04-24T02:17:36;12.30;76.20
64062;DHT22;50308;47.438;-1.528;2023-04-24T02:20:02;12.40;76.40
64062;DHT22;50308;47.438;-1.528;2023-04-24T02:22:27;12.40;76.40
64062;DHT22;50308;47.438;-1.528;2023-04-24T02:24:53;12.40;76.40
64062;DHT22;50308;47.438;-1.528;2023-04-24T02:27:19;12.40;76.20
64062;DHT22;50308;47.438;-1.528;2023-04-24T02:29:44;12.50;77.30
64062;DHT22;50308;47.438;-1.528;2023-04-24T02:32:10;12.50;76.80
64062;DHT22;50308;47.438;-1.528;2023-04-24T02:34:37;12.50;76.80
64062;DHT22;50308;47.438;-1.528;2023-04-24T02:37:03;12.50;77.00
64062;DHT22;50308;47.438;-1.528;2023-04-24T02:39:29;12.60;76.50
64062;DHT22;50308;47.438;-1.528;2023-04-24T02:41:55;12.60;76.90
64062;DHT22;50308;47.438;-1.528;2023-04-24T02:44:20;12.60;76.60
64062;DHT22;50308;47.438;-1.528;2023-04-24T02:46:47;12.60;76.80
64062;DHT22;50308;47.438;-1.528;2023-04-24T02:49:12;12.60;76.50
64062;DHT22;50308;47.438;-1.528;2023-04-24T02:51:38;12.60;76.90
64062;DHT22;50308;47.438;-1.528;2023-04-24T02:54:09;12.50;76.90
64062;DHT22;50308;47.438;-1.528;2023-04-24T02:56:35;12.50;76.90
64062;DHT22;50308;47.438;-1.528;2023-04-24T02:59:01;12.50;76.90
64062;DHT22;50308;47.438;-1.528;2023-04-24T03:01:27;12.50;76.90
64062;DHT22;50308;47.438;-1.528;2023-04-24T03:03:52;12.40;76.90
64062;DHT22;50308;47.438;-1.528;2023-04-24T03:06:18;12.50;77.00
64062;DHT22;50308;47.438;-1.528;2023-04-24T03:08:43;12.50;77.00
64062;DHT22;50308;47.438;-1.528;2023-04-24T03:11:09;12.50;77.00
64062;DHT22;50308;47.438;-1.528;2023-04-24T03:13:35;12.60;77.00
64062;DHT22;50308;47.438;-1.528;2023-04-24T03:16:01;12.60;77.00
64062;DHT22;50308;47.438;-1.528;2023-04-24T03:18:26;12.60;77.00
64062;DHT22;50308;47.438;-1.528;2023-04-24T03:20:52;12.60;77.00
64062;DHT22;50308;47.438;-1.528;2023-04-24T03:23:18;12.70;77.10
64062;DHT22;50308;47.438;-1.528;2023-04-24T03:25:43;12.70;77.00
64062;DHT22;50308;47.438;-1.528;2023-04-24T03:28:09;12.70;77.10
64062;DHT22;50308;47.438;-1.528;2023-04-24T03:30:35;12.70;77.10
64062;DHT22;50308;47.438;-1.528;2023-04-24T03:33:00;12.80;77.10
64062;DHT22;50308;47.438;-1.528;2023-04-24T03:35:26;12.80;77.50
64062;DHT22;50308;47.438;-1.528;2023-04-24T03:37:52;12.80;77.10
64062;DHT22;50308;47.438;-1.528;2023-04-24T03:40:17;12.90;77.40
64062;DHT22;50308;47.438;-1.528;2023-04-24T03:42:43;12.90;77.60
64062;DHT22;50308;47.438;-1.528;2023-04-24T03:45:09;12.80;77.20
64062;DHT22;50308;47.438;-1.528;2023-04-24T03:47:35;12.90;77.30
64062;DHT22;50308;47.438;-1.528;2023-04-24T03:50:01;12.80;77.10
64062;DHT22;50308;47.438;-1.528;2023-04-24T03:52:26;12.80;77.60
64062;DHT22;50308;47.438;-1.528;2023-04-24T03:54:52;12.80;77.70
64062;DHT22;50308;47.438;-1.528;2023-04-24T03:57:18;12.90;77.80
64062;DHT22;50308;47.438;-1.528;2023-04-24T03:59:44;12.90;77.50
64062;DHT22;50308;47.438;-1.528;2023-04-24T04:02:10;12.90;77.90
64062;DHT22;50308;47.438;-1.528;2023-04-24T04:04:35;12.90;77.50
64062;DHT22;50308;47.438;-1.528;2023-04-24T04:07:01;12.90;77.80
64062;DHT22;50308;47.438;-1.528;2023-04-24T04:09:28;12.90;77.90
64062;DHT22;50308;47.438;-1.528;2023-04-24T04:11:54;12.90;77.70
64062;DHT22;50308;47.438;-1.528;2023-04-24T04:14:21;12.90;78.00
64062;DHT22;50308;47.438;-1.528;2023-04-24T04:16:46;12.90;78.00
64062;DHT22;50308;47.438;-1.528;2023-04-24T04:19:12;12.90;77.80
64062;DHT22;50308;47.438;-1.528;2023-04-24T04:21:38;12.90;77.70
64062;DHT22;50308;47.438;-1.528;2023-04-24T04:24:04;12.90;78.00
64062;DHT22;50308;47.438;-1.528;2023-04-24T04:26:31;12.90;77.70
64062;DHT22;50308;47.438;-1.528;2023-04-24T04:28:58;12.90;77.80
64062;DHT22;50308;47.438;-1.528;2023-04-24T04:31:26;12.90;77.90
64062;DHT22;50308;47.438;-1.528;2023-04-24T04:33:51;12.90;78.00
64062;DHT22;50308;47.438;-1.528;2023-04-24T04:36:17;12.90;78.20
64062;DHT22;50308;47.438;-1.528;2023-04-24T04:38:43;12.90;78.10
64062;DHT22;50308;47.438;-1.528;2023-04-24T04:41:10;12.90;77.90
64062;DHT22;50308;47.438;-1.528;2023-04-24T04:43:36;12.90;77.60
64062;DHT22;50308;47.438;-1.528;2023-04-24T04:46:03;12.90;77.40
64062;DHT22;50308;47.438;-1.528;2023-04-24T04:48:29;12.90;77.90
64062;DHT22;50308;47.438;-1.528;2023-04-24T04:50:57;13.00;78.10
64062;DHT22;50308;47.438;-1.528;2023-04-24T04:53:23;13.00;77.80
64062;DHT22;50308;47.438;-1.528;2023-04-24T04:55:48;13.00;77.80
64062;DHT22;50308;47.438;-1.528;2023-04-24T04:58:14;13.00;77.40
64062;DHT22;50308;47.438;-1.528;2023-04-24T05:00:40;13.00;77.90
64062;DHT22;50308;47.438;-1.528;2023-04-24T05:03:06;13.00;78.00
64062;DHT22;50308;47.438;-1.528;2023-04-24T05:05:32;13.00;77.70
64062;DHT22;50308;47.438;-1.528;2023-04-24T05:07:58;13.00;77.80
64062;DHT22;50308;47.438;-1.528;2023-04-24T05:10:23;13.00;78.30
64062;DHT22;50308;47.438;-1.528;2023-04-24T05:12:49;13.00;78.50
64062;DHT22;50308;47.438;-1.528;2023-04-24T05:15:15;13.00;78.50
64062;DHT22;50308;47.438;-1.528;2023-04-24T05:17:41;13.00;78.30
64062;DHT22;50308;47.438;-1.528;2023-04-24T05:20:07;13.10;78.20
64062;DHT22;50308;47.438;-1.528;2023-04-24T05:22:33;13.00;78.20
64062;DHT22;50308;47.438;-1.528;2023-04-24T05:24:59;13.10;78.30
64062;DHT22;50308;47.438;-1.528;2023-04-24T05:27:24;13.10;78.20
64062;DHT22;50308;47.438;-1.528;2023-04-24T05:29:50;13.10;78.10
64062;DHT22;50308;47.438;-1.528;2023-04-24T05:32:17;13.10;78.30
64062;DHT22;50308;47.438;-1.528;2023-04-24T05:34:43;13.10;78.20
64062;DHT22;50308;47.438;-1.528;2023-04-24T05:37:09;13.10;78.80
64062;DHT22;50308;47.438;-1.528;2023-04-24T05:39:35;13.10;78.90
64062;DHT22;50308;47.438;-1.528;2023-04-24T05:42:02;13.10;78.70
64062;DHT22;50308;47.438;-1.528;2023-04-24T05:44:28;13.10;78.80
64062;DHT22;50308;47.438;-1.528;2023-04-24T05:46:54;13.10;78.90
64062;DHT22;50308;47.438;-1.528;2023-04-24T05:49:21;13.10;78.80
64062;DHT22;50308;47.438;-1.528;2023-04-24T05:51:47;13.20;79.10
64062;DHT22;50308;47.438;-1.528;2023-04-24T05:54:12;13.10;78.70
64062;DHT22;50308;47.438;-1.528;2023-04-24T05:56:39;13.10;78.60
64062;DHT22;50308;47.438;-1.528;2023-04-24T05:59:04;13.20;79.10
64062;DHT22;50308;47.438;-1.528;2023-04-24T06:01:30;13.20;78.60
64062;DHT22;50308;47.438;-1.528;2023-04-24T06:03:57;13.20;78.60
64062;DHT22;50308;47.438;-1.528;2023-04-24T06:08:48;13.20;78.30
64062;DHT22;50308;47.438;-1.528;2023-04-24T06:11:15;13.20;79.20
64062;DHT22;50308;47.438;-1.528;2023-04-24T06:13:41;13.20;77.90
64062;DHT22;50308;47.438;-1.528;2023-04-24T06:16:07;13.30;77.80
64062;DHT22;50308;47.438;-1.528;2023-04-24T06:18:36;13.30;78.10
64062;DHT22;50308;47.438;-1.528;2023-04-24T06:23:27;13.30;77.90
64062;DHT22;50308;47.438;-1.528;2023-04-24T06:25:53;13.30;78.20
64062;DHT22;50308;47.438;-1.528;2023-04-24T06:28:19;13.30;78.60
64062;DHT22;50308;47.438;-1.528;2023-04-24T06:30:44;13.40;78.10
64062;DHT22;50308;47.438;-1.528;2023-04-24T06:33:10;13.50;78.40
64062;DHT22;50308;47.438;-1.528;2023-04-24T06:35:36;13.40;77.50
64062;DHT22;50308;47.438;-1.528;2023-04-24T06:38:03;13.40;78.00
64062;DHT22;50308;47.438;-1.528;2023-04-24T06:40:29;13.50;78.30
64062;DHT22;50308;47.438;-1.528;2023-04-24T06:42:55;13.40;77.90
64062;DHT22;50308;47.438;-1.528;2023-04-24T06:45:21;13.30;77.60
64062;DHT22;50308;47.438;-1.528;2023-04-24T06:47:47;13.30;77.80
64062;DHT22;50308;47.438;-1.528;2023-04-24T06:50:12;13.40;77.60
64062;DHT22;50308;47.438;-1.528;2023-04-24T06:52:38;13.40;77.60
64062;DHT22;50308;47.438;-1.528;2023-04-24T06:55:04;13.30;77.40
64062;DHT22;50308;47.438;-1.528;2023-04-24T06:57:31;13.40;77.50
64062;DHT22;50308;47.438;-1.528;2023-04-24T07:04:48;13.40;77.30
64062;DHT22;50308;47.438;-1.528;2023-04-24T07:07:14;13.40;76.80
64062;DHT22;50308;47.438;-1.528;2023-04-24T07:09:40;13.40;77.00
64062;DHT22;50308;47.438;-1.528;2023-04-24T07:12:10;13.50;76.80
64062;DHT22;50308;47.438;-1.528;2023-04-24T07:14:36;13.60;76.90
64062;DHT22;50308;47.438;-1.528;2023-04-24T07:17:05;13.60;76.90
64062;DHT22;50308;47.438;-1.528;2023-04-24T07:19:33;13.60;76.70
64062;DHT22;50308;47.438;-1.528;2023-04-24T07:21:59;13.60;76.20
64062;DHT22;50308;47.438;-1.528;2023-04-24T07:24:25;13.60;76.20
64062;DHT22;50308;47.438;-1.528;2023-04-24T07:26:52;13.60;75.80
64062;DHT22;50308;47.438;-1.528;2023-04-24T07:29:18;13.50;76.00
64062;DHT22;50308;47.438;-1.528;2023-04-24T07:31:44;13.50;75.60
64062;DHT22;50308;47.438;-1.528;2023-04-24T07:34:10;13.50;75.50
64062;DHT22;50308;47.438;-1.528;2023-04-24T07:36:36;13.60;75.80
64062;DHT22;50308;47.438;-1.528;2023-04-24T07:39:06;13.60;75.30
64062;DHT22;50308;47.438;-1.528;2023-04-24T07:41:33;13.50;75.20
64062;DHT22;50308;47.438;-1.528;2023-04-24T07:43:59;13.60;75.40
64062;DHT22;50308;47.438;-1.528;2023-04-24T07:46:25;13.60;75.10
64062;DHT22;50308;47.438;-1.528;2023-04-24T07:48:53;13.60;75.40
64062;DHT22;50308;47.438;-1.528;2023-04-24T07:51:19;13.70;75.30
64062;DHT22;50308;47.438;-1.528;2023-04-24T07:53:45;13.70;74.90
64062;DHT22;50308;47.438;-1.528;2023-04-24T07:56:10;13.70;74.90
64062;DHT22;50308;47.438;-1.528;2023-04-24T07:58:36;13.70;74.60
64062;DHT22;50308;47.438;-1.528;2023-04-24T08:01:02;13.70;75.00
64062;DHT22;50308;47.438;-1.528;2023-04-24T08:03:28;13.80;75.50
64062;DHT22;50308;47.438;-1.528;2023-04-24T08:05:53;13.80;74.70
64062;DHT22;50308;47.438;-1.528;2023-04-24T08:08:22;13.80;74.80
64062;DHT22;50308;47.438;-1.528;2023-04-24T08:10:47;13.90;75.10
64062;DHT22;50308;47.438;-1.528;2023-04-24T08:13:13;13.90;74.50
64062;DHT22;50308;47.438;-1.528;2023-04-24T08:15:39;13.90;74.60
64062;DHT22;50308;47.438;-1.528;2023-04-24T08:18:05;13.90;74.20
64062;DHT22;50308;47.438;-1.528;2023-04-24T08:20:31;13.90;74.40
64062;DHT22;50308;47.438;-1.528;2023-04-24T08:22:57;13.90;74.80
64062;DHT22;50308;47.438;-1.528;2023-04-24T08:25:22;14.00;74.70
64062;DHT22;50308;47.438;-1.528;2023-04-24T08:27:51;14.00;74.20
64062;DHT22;50308;47.438;-1.528;2023-04-24T08:30:17;13.90;74.00
64062;DHT22;50308;47.438;-1.528;2023-04-24T08:32:43;13.90;74.40
64062;DHT22;50308;47.438;-1.528;2023-04-24T08:35:09;13.90;74.30
64062;DHT22;50308;47.438;-1.528;2023-04-24T08:37:35;14.00;74.20
64062;DHT22;50308;47.438;-1.528;2023-04-24T08:40:05;13.90;73.70
64062;DHT22;50308;47.438;-1.528;2023-04-24T08:42:33;14.00;74.20
64062;DHT22;50308;47.438;-1.528;2023-04-24T08:44:59;14.00;74.40
64062;DHT22;50308;47.438;-1.528;2023-04-24T08:47:26;14.00;74.10
64062;DHT22;50308;47.438;-1.528;2023-04-24T08:49:54;14.10;74.50
64062;DHT22;50308;47.438;-1.528;2023-04-24T08:52:20;14.10;74.30
64062;DHT22;50308;47.438;-1.528;2023-04-24T08:54:47;14.00;74.30
64062;DHT22;50308;47.438;-1.528;2023-04-24T08:57:14;14.10;74.60
64062;DHT22;50308;47.438;-1.528;2023-04-24T08:59:40;14.10;74.30
64062;DHT22;50308;47.438;-1.528;2023-04-24T09:02:10;14.00;74.20
64062;DHT22;50308;47.438;-1.528;2023-04-24T09:04:36;14.00;74.30
64062;DHT22;50308;47.438;-1.528;2023-04-24T09:07:03;14.00;74.50
64062;DHT22;50308;47.438;-1.528;2023-04-24T09:09:32;14.00;74.70
64062;DHT22;50308;47.438;-1.528;2023-04-24T09:11:58;14.00;74.90
64062;DHT22;50308;47.438;-1.528;2023-04-24T09:14:24;14.10;75.20
64062;DHT22;50308;47.438;-1.528;2023-04-24T09:16:50;14.00;75.40
64062;DHT22;50308;47.438;-1.528;2023-04-24T09:19:16;14.00;75.60
64062;DHT22;50308;47.438;-1.528;2023-04-24T09:21:45;14.00;76.50
64062;DHT22;50308;47.438;-1.528;2023-04-24T09:24:17;14.00;76.50
64062;DHT22;50308;47.438;-1.528;2023-04-24T09:26:43;14.00;76.50
64062;DHT22;50308;47.438;-1.528;2023-04-24T09:29:17;14.00;77.40
64062;DHT22;50308;47.438;-1.528;2023-04-24T09:31:44;14.00;77.40
64062;DHT22;50308;47.438;-1.528;2023-04-24T09:34:10;14.00;77.20
64062;DHT22;50308;47.438;-1.528;2023-04-24T09:36:37;14.10;77.50
64062;DHT22;50308;47.438;-1.528;2023-04-24T09:39:08;14.10;78.20
64062;DHT22;50308;47.438;-1.528;2023-04-24T09:41:50;14.10;77.80
64062;DHT22;50308;47.438;-1.528;2023-04-24T09:44:19;14.20;77.80
64062;DHT22;50308;47.438;-1.528;2023-04-24T09:46:50;14.20;77.90
64062;DHT22;50308;47.438;-1.528;2023-04-24T09:49:24;14.20;77.90
64062;DHT22;50308;47.438;-1.528;2023-04-24T09:51:50;14.20;77.20
64062;DHT22;50308;47.438;-1.528;2023-04-24T09:54:21;14.30;77.50
64062;DHT22;50308;47.438;-1.528;2023-04-24T09:56:48;14.30;77.20
64062;DHT22;50308;47.438;-1.528;2023-04-24T09:59:16;14.30;77.20
64062;DHT22;50308;47.438;-1.528;2023-04-24T10:01:41;14.40;77.50
64062;DHT22;50308;47.438;-1.528;2023-04-24T10:04:23;14.40;77.10
64062;DHT22;50308;47.438;-1.528;2023-04-24T10:06:52;14.40;76.90
64062;DHT22;50308;47.438;-1.528;2023-04-24T10:09:20;14.40;77.10
64062;DHT22;50308;47.438;-1.528;2023-04-24T10:11:48;14.40;76.60
64062;DHT22;50308;47.438;-1.528;2023-04-24T10:14:15;14.50;77.00
64062;DHT22;50308;47.438;-1.528;2023-04-24T10:16:42;14.50;77.50
64062;DHT22;50308;47.438;-1.528;2023-04-24T10:19:09;14.50;76.60
64062;DHT22;50308;47.438;-1.528;2023-04-24T10:21:35;14.50;76.20
64062;DHT22;50308;47.438;-1.528;2023-04-24T10:24:05;14.50;76.40
64062;DHT22;50308;47.438;-1.528;2023-04-24T10:26:33;14.50;76.10
64062;DHT22;50308;47.438;-1.528;2023-04-24T10:28:59;14.50;76.40
64062;DHT22;50308;47.438;-1.528;2023-04-24T10:31:26;14.50;76.10
64062;DHT22;50308;47.438;-1.528;2023-04-24T10:33:53;14.50;75.80
64062;DHT22;50308;47.438;-1.528;2023-04-24T10:36:22;14.50;75.80
64062;DHT22;50308;47.438;-1.528;2023-04-24T10:38:49;14.50;75.20
64062;DHT22;50308;47.438;-1.528;2023-04-24T10:41:18;14.50;74.10
64062;DHT22;50308;47.438;-1.528;2023-04-24T10:46:30;14.50;74.60
64062;DHT22;50308;47.438;-1.528;2023-04-24T10:48:55;14.60;74.60
64062;DHT22;50308;47.438;-1.528;2023-04-24T10:51:23;14.60;73.80
64062;DHT22;50308;47.438;-1.528;2023-04-24T10:53:50;14.60;74.10
64062;DHT22;50308;47.438;-1.528;2023-04-24T10:56:16;14.60;73.80
64062;DHT22;50308;47.438;-1.528;2023-04-24T10:58:50;14.50;72.50
64062;DHT22;50308;47.438;-1.528;2023-04-24T11:01:25;14.50;71.20
64062;DHT22;50308;47.438;-1.528;2023-04-24T11:03:56;14.50;71.70
64062;DHT22;50308;47.438;-1.528;2023-04-24T11:06:34;14.50;71.80
64062;DHT22;50308;47.438;-1.528;2023-04-24T11:09:05;14.50;71.30
64062;DHT22;50308;47.438;-1.528;2023-04-24T11:11:32;14.50;70.70
64062;DHT22;50308;47.438;-1.528;2023-04-24T11:18:59;14.60;72.20
64062;DHT22;50308;47.438;-1.528;2023-04-24T11:21:28;14.60;73.00
64062;DHT22;50308;47.438;-1.528;2023-04-24T11:23:56;14.60;71.60
64062;DHT22;50308;47.438;-1.528;2023-04-24T11:26:22;14.60;72.60
64062;DHT22;50308;47.438;-1.528;2023-04-24T11:29:06;14.60;72.30
64062;DHT22;50308;47.438;-1.528;2023-04-24T11:31:39;14.60;72.70
64062;DHT22;50308;47.438;-1.528;2023-04-24T11:34:11;14.70;73.30
64062;DHT22;50308;47.438;-1.528;2023-04-24T11:36:38;14.70;74.10
64062;DHT22;50308;47.438;-1.528;2023-04-24T11:39:04;14.70;73.00
64062;DHT22;50308;47.438;-1.528;2023-04-24T11:41:31;14.70;74.10
64062;DHT22;50308;47.438;-1.528;2023-04-24T11:43:57;14.70;73.80
64062;DHT22;50308;47.438;-1.528;2023-04-24T11:46:26;14.70;74.00
64062;DHT22;50308;47.438;-1.528;2023-04-24T11:48:51;14.80;73.70
64062;DHT22;50308;47.438;-1.528;2023-04-24T11:51:17;14.80;73.30
64062;DHT22;50308;47.438;-1.528;2023-04-24T11:53:43;14.80;74.00
64062;DHT22;50308;47.438;-1.528;2023-04-24T11:56:09;14.80;72.90
64062;DHT22;50308;47.438;-1.528;2023-04-24T11:58:38;14.80;72.80
64062;DHT22;50308;47.438;-1.528;2023-04-24T12:01:04;14.80;73.10
64062;DHT22;50308;47.438;-1.528;2023-04-24T12:03:30;14.80;71.90
64062;DHT22;50308;47.438;-1.528;2023-04-24T12:06:07;14.80;73.00
64062;DHT22;50308;47.438;-1.528;2023-04-24T12:08:35;14.80;73.30
64062;DHT22;50308;47.438;-1.528;2023-04-24T12:11:02;14.80;73.60
64062;DHT22;50308;47.438;-1.528;2023-04-24T12:13:29;14.80;73.50
64062;DHT22;50308;47.438;-1.528;2023-04-24T12:15:56;14.80;73.70
64062;DHT22;50308;47.438;-1.528;2023-04-24T12:18:23;14.80;74.40
64062;DHT22;50308;47.438;-1.528;2023-04-24T12:20:49;14.80;73.50
64062;DHT22;50308;47.438;-1.528;2023-04-24T12:23:15;14.80;73.60
64062;DHT22;50308;47.438;-1.528;2023-04-24T12:25:41;14.80;73.70
64062;DHT22;50308;47.438;-1.528;2023-04-24T12:28:11;14.90;73.90
64062;DHT22;50308;47.438;-1.528;2023-04-24T12:30:42;14.90;74.50
64062;DHT22;50308;47.438;-1.528;2023-04-24T12:33:10;14.90;74.00
64062;DHT22;50308;47.438;-1.528;2023-04-24T12:35:35;14.90;74.10
64062;DHT22;50308;47.438;-1.528;2023-04-24T12:38:09;14.90;73.90
64062;DHT22;50308;47.438;-1.528;2023-04-24T12:40:35;14.90;73.40
64062;DHT22;50308;47.438;-1.528;2023-04-24T12:43:01;14.90;73.30
64062;DHT22;50308;47.438;-1.528;2023-04-24T12:45:27;14.90;73.10
64062;DHT22;50308;47.438;-1.528;2023-04-24T12:47:53;14.90;73.10
64062;DHT22;50308;47.438;-1.528;2023-04-24T12:50:19;14.90;73.10
64062;DHT22;50308;47.438;-1.528;2023-04-24T12:52:45;14.90;73.50
64062;DHT22;50308;47.438;-1.528;2023-04-24T12:55:11;14.90;73.40
64062;DHT22;50308;47.438;-1.528;2023-04-24T12:57:38;14.90;73.30
64062;DHT22;50308;47.438;-1.528;2023-04-24T13:00:06;14.90;73.10
64062;DHT22;50308;47.438;-1.528;2023-04-24T13:02:33;14.90;73.10
64062;DHT22;50308;47.438;-1.528;2023-04-24T13:04:59;15.00;72.90
64062;DHT22;50308;47.438;-1.528;2023-04-24T13:07:25;15.00;73.40
64062;DHT22;50308;47.438;-1.528;2023-04-24T13:09:52;15.00;71.60
64062;DHT22;50308;47.438;-1.528;2023-04-24T13:12:18;15.00;71.80
64062;DHT22;50308;47.438;-1.528;2023-04-24T13:14:44;15.00;71.50
64062;DHT22;50308;47.438;-1.528;2023-04-24T13:17:11;15.00;72.50
64062;DHT22;50308;47.438;-1.528;2023-04-24T13:19:39;15.00;72.00
64062;DHT22;50308;47.438;-1.528;2023-04-24T13:22:06;15.00;72.00
64062;DHT22;50308;47.438;-1.528;2023-04-24T13:24:32;15.00;71.60
64062;DHT22;50308;47.438;-1.528;2023-04-24T13:26:59;15.00;72.50
64062;DHT22;50308;47.438;-1.528;2023-04-24T13:29:25;15.00;71.50
64062;DHT22;50308;47.438;-1.528;2023-04-24T13:31:51;15.00;71.90
64062;DHT22;50308;47.438;-1.528;2023-04-24T13:34:17;15.00;71.70
64062;DHT22;50308;47.438;-1.528;2023-04-24T13:36:43;15.00;72.50
64062;DHT22;50308;47.438;-1.528;2023-04-24T13:39:10;15.00;72.00
64062;DHT22;50308;47.438;-1.528;2023-04-24T13:41:36;15.00;72.90
64062;DHT22;50308;47.438;-1.528;2023-04-24T13:44:03;15.00;72.80
64062;DHT22;50308;47.438;-1.528;2023-04-24T13:46:29;15.00;72.00
64062;DHT22;50308;47.438;-1.528;2023-04-24T13:48:55;15.00;71.50
64062;DHT22;50308;47.438;-1.528;2023-04-24T13:51:22;15.00;72.00
64062;DHT22;50308;47.438;-1.528;2023-04-24T13:53:48;15.00;72.30
64062;DHT22;50308;47.438;-1.528;2023-04-24T13:56:14;15.00;71.90
64062;DHT22;50308;47.438;-1.528;2023-04-24T13:58:40;15.00;72.30
64062;DHT22;50308;47.438;-1.528;2023-04-24T14:01:06;15.00;72.50
64062;DHT22;50308;47.438;-1.528;2023-04-24T14:03:33;15.10;72.10
64062;DHT22;50308;47.438;-1.528;2023-04-24T14:05:59;15.10;71.90
64062;DHT22;50308;47.438;-1.528;2023-04-24T14:08:25;15.10;71.60
64062;DHT22;50308;47.438;-1.528;2023-04-24T14:10:51;15.10;72.50
64062;DHT22;50308;47.438;-1.528;2023-04-24T14:13:17;15.10;72.70
64062;DHT22;50308;47.438;-1.528;2023-04-24T14:15:42;15.10;71.70
64062;DHT22;50308;47.438;-1.528;2023-04-24T14:18:08;15.10;72.30
64062;DHT22;50308;47.438;-1.528;2023-04-24T14:20:34;15.20;71.70
64062;DHT22;50308;47.438;-1.528;2023-04-24T14:22:59;15.20;71.10
64062;DHT22;50308;47.438;-1.528;2023-04-24T14:25:26;15.20;71.20
64062;DHT22;50308;47.438;-1.528;2023-04-24T14:27:52;15.30;70.70
64062;DHT22;50308;47.438;-1.528;2023-04-24T14:30:18;15.20;72.40
64062;DHT22;50308;47.438;-1.528;2023-04-24T14:32:44;15.20;71.50
64062;DHT22;50308;47.438;-1.528;2023-04-24T14:35:10;15.20;71.60
64062;DHT22;50308;47.438;-1.528;2023-04-24T14:37:36;15.20;71.50
64062;DHT22;50308;47.438;-1.528;2023-04-24T14:40:02;15.20;71.20
64062;DHT22;50308;47.438;-1.528;2023-04-24T14:42:31;15.20;71.20
64062;DHT22;50308;47.438;-1.528;2023-04-24T14:44:57;15.30;70.40
64062;DHT22;50308;47.438;-1.528;2023-04-24T14:47:23;15.30;71.20
64062;DHT22;50308;47.438;-1.528;2023-04-24T14:49:48;15.30;70.20
64062;DHT22;50308;47.438;-1.528;2023-04-24T14:52:14;15.40;70.20
64062;DHT22;50308;47.438;-1.528;2023-04-24T14:54:41;15.40;70.30
64062;DHT22;50308;47.438;-1.528;2023-04-24T14:57:07;15.30;71.40
64062;DHT22;50308;47.438;-1.528;2023-04-24T14:59:33;15.20;70.20
64062;DHT22;50308;47.438;-1.528;2023-04-24T15:01:59;15.30;70.60
64062;DHT22;50308;47.438;-1.528;2023-04-24T15:04:24;15.30;69.70
64062;DHT22;50308;47.438;-1.528;2023-04-24T15:06:54;15.40;69.70
64062;DHT22;50308;47.438;-1.528;2023-04-24T15:09:21;15.40;69.20
64062;DHT22;50308;47.438;-1.528;2023-04-24T15:11:47;15.40;69.60
64062;DHT22;50308;47.438;-1.528;2023-04-24T15:14:13;15.40;69.30
64062;DHT22;50308;47.438;-1.528;2023-04-24T15:16:38;15.30;69.80
64062;DHT22;50308;47.438;-1.528;2023-04-24T15:19:04;15.30;69.80
64062;DHT22;50308;47.438;-1.528;2023-04-24T15:21:30;15.40;69.50
64062;DHT22;50308;47.438;-1.528;2023-04-24T15:23:57;15.40;69.30
64062;DHT22;50308;47.438;-1.528;2023-04-24T15:26:23;15.40;69.90
64062;DHT22;50308;47.438;-1.528;2023-04-24T15:28:49;15.40;69.80